sensor_id;sensor_type;location;lat;lon;timestamp;pressure;altitude;pressure_sealevel;temperature;humidity
57442;BME280;43284;47.042;15.498;2024-02-21T00:00:32;97998.34;;;0.82;100.00
57442;BME280;43284;47.042;15.498;2024-02-21T00:02:58;97999.22;;;0.82;100.00
57442;BME280;43284;47.042;15.498;2024-02-21T00:05:24;97998.38;;;0.84;100.00
57442;BME280;43284;47.042;15.498;2024-02-21T00:07:50;97996.66;;;0.81;100.00
57442;BME280;43284;47.042;15.498;2024-02-21T00:10:15;97994.03;;;0.73;100.00
57442;BME280;43284;47.042;15.498;2024-02-21T00:12:41;97995.72;;;0.70;100.00
57442;BME280;43284;47.042;15.498;2024-02-21T00:15:07;97991.44;;;0.69;100.00
57442;BME280;43284;47.042;15.498;2024-02-21T00:17:32;97988.84;;;0.64;100.00
57442;BME280;43284;47.042;15.498;2024-02-21T00:19:58;97994.00;;;0.63;100.00
57442;BME280;43284;47.042;15.498;2024-02-21T00:22:23;97991.41;;;0.61;100.00
57442;BME280;43284;47.042;15.498;2024-02-21T00:24:50;97993.09;;;0.59;100.00
57442;BME280;43284;47.042;15.498;2024-02-21T00:27:15;97986.25;;;0.58;100.00
57442;BME280;43284;47.042;15.498;2024-02-21T00:29:41;97987.97;;;0.57;100.00
57442;BME280;43284;47.042;15.498;2024-02-21T00:32:06;97985.38;;;0.56;100.00
57442;BME280;43284;47.042;15.498;2024-02-21T00:34:32;97987.06;;;0.48;100.00
57442;BME280;43284;47.042;15.498;2024-02-21T00:37:00;97987.94;;;0.50;100.00
57442;BME280;43284;47.042;15.498;2024-02-21T00:39:26;97985.38;;;0.53;100.00
57442;BME280;43284;47.042;15.498;2024-02-21T00:41:52;97985.38;;;0.56;100.00
57442;BME280;43284;47.042;15.498;2024-02-21T00:44:17;97983.69;;;0.58;100.00
57442;BME280;43284;47.042;15.498;2024-02-21T00:46:43;97988.78;;;0.50;100.00
57442;BME280;43284;47.042;15.498;2024-02-21T00:49:08;97987.00;;;0.35;100.00
57442;BME280;43284;47.042;15.498;2024-02-21T00:51:34;97979.31;;;0.43;100.00
57442;BME280;43284;47.042;15.498;2024-02-21T00:53:59;97983.63;;;0.50;100.00
57442;BME280;43284;47.042;15.498;2024-02-21T00:56:25;97975.06;;;0.51;100.00
57442;BME280;43284;47.042;15.498;2024-02-21T00:58:50;97976.81;;;0.54;100.00
57442;BME280;43284;47.042;15.498;2024-02-21T01:01:23;97967.41;;;0.57;100.00
57442;BME280;43284;47.042;15.498;2024-02-21T01:03:49;97967.41;;;0.62;100.00
57442;BME280;43284;47.042;15.498;2024-02-21T01:06:15;97968.28;;;0.64;100.00
57442;BME280;43284;47.042;15.498;2024-02-21T01:08:40;97974.25;;;0.58;100.00
57442;BME280;43284;47.042;15.498;2024-02-21T01:11:06;97978.56;;;0.64;100.00
57442;BME280;43284;47.042;15.498;2024-02-21T01:13:31;97975.16;;;0.68;100.00
57442;BME280;43284;47.042;15.498;2024-02-21T01:15:57;97967.41;;;0.60;100.00
57442;BME280;43284;47.042;15.498;2024-02-21T01:18:22;97968.25;;;0.61;100.00
57442;BME280;43284;47.042;15.498;2024-02-21T01:20:48;97960.56;;;0.67;100.00
57442;BME280;43284;47.042;15.498;2024-02-21T01:23:13;97964.03;;;0.72;100.00
57442;BME280;43284;47.042;15.498;2024-02-21T01:25:39;97963.16;;;0.76;100.00
57442;BME280;43284;47.042;15.498;2024-02-21T01:28:05;97968.31;;;0.82;100.00
57442;BME280;43284;47.042;15.498;2024-02-21T01:30:34;97960.63;;;0.86;100.00
57442;BME280;43284;47.042;15.498;2024-02-21T01:33:00;97954.63;;;0.91;100.00
57442;BME280;43284;47.042;15.498;2024-02-21T01:35:25;97951.22;;;0.97;100.00
57442;BME280;43284;47.042;15.498;2024-02-21T01:37:51;97963.22;;;0.98;100.00
57442;BME280;43284;47.042;15.498;2024-02-21T01:40:17;97959.78;;;0.97;100.00
57442;BME280;43284;47.042;15.498;2024-02-21T01:42:42;97954.63;;;1.00;100.00
57442;BME280;43284;47.042;15.498;2024-02-21T01:45:08;97958.09;;;1.04;100.00
57442;BME280;43284;47.042;15.498;2024-02-21T01:47:35;97964.97;;;1.08;100.00
57442;BME280;43284;47.042;15.498;2024-02-21T01:50:01;97956.38;;;1.06;100.00
57442;BME280;43284;47.042;15.498;2024-02-21T01:52:29;97952.09;;;1.10;100.00
57442;BME280;43284;47.042;15.498;2024-02-21T01:54:55;97952.13;;;1.14;100.00
57442;BME280;43284;47.042;15.498;2024-02-21T01:57:20;97934.94;;;1.18;100.00
57442;BME280;43284;47.042;15.498;2024-02-21T01:59:47;97930.66;;;1.21;100.00
57442;BME280;43284;47.042;15.498;2024-02-21T02:02:13;97940.97;;;1.43;100.00
57442;BME280;43284;47.042;15.498;2024-02-21T02:04:38;97937.53;;;1.41;100.00
57442;BME280;43284;47.042;15.498;2024-02-21T02:07:06;97938.41;;;1.44;100.00
57442;BME280;43284;47.042;15.498;2024-02-21T02:09:32;97934.09;;;1.42;100.00
57442;BME280;43284;47.042;15.498;2024-02-21T02:11:58;97926.38;;;1.50;100.00
57442;BME280;43284;47.042;15.498;2024-02-21T02:14:25;97942.69;;;1.67;100.00
57442;BME280;43284;47.042;15.498;2024-02-21T02:16:50;97932.38;;;1.67;100.00
57442;BME280;43284;47.042;15.498;2024-02-21T02:19:16;97931.50;;;1.70;100.00
57442;BME280;43284;47.042;15.498;2024-02-21T02:21:49;97919.47;;;1.81;100.00
57442;BME280;43284;47.042;15.498;2024-02-21T02:24:22;97937.44;;;2.12;100.00
57442;BME280;43284;47.042;15.498;2024-02-21T02:26:49;97934.06;;;1.97;100.00
57442;BME280;43284;47.042;15.498;2024-02-21T02:29:14;97910.00;;;1.92;100.00
57442;BME280;43284;47.042;15.498;2024-02-21T02:31:40;97910.00;;;1.92;100.00
57442;BME280;43284;47.042;15.498;2024-02-21T02:34:05;97916.00;;;1.97;100.00
57442;BME280;43284;47.042;15.498;2024-02-21T02:36:35;97912.56;;;2.01;100.00
57442;BME280;43284;47.042;15.498;2024-02-21T02:39:00;97928.84;;;2.16;100.00
57442;BME280;43284;47.042;15.498;2024-02-21T02:41:26;97923.69;;;2.17;100.00
57442;BME280;43284;47.042;15.498;2024-02-21T02:43:52;97925.41;;;2.17;100.00
57442;BME280;43284;47.042;15.498;2024-02-21T02:46:17;97920.22;;;2.23;100.00
57442;BME280;43284;47.042;15.498;2024-02-21T02:48:43;97921.09;;;2.23;100.00
57442;BME280;43284;47.042;15.498;2024-02-21T02:51:08;97913.34;;;2.20;100.00
57442;BME280;43284;47.042;15.498;2024-02-21T02:53:34;97896.19;;;2.19;100.00
57442;BME280;43284;47.042;15.498;2024-02-21T02:55:59;97919.34;;;2.36;100.00
57442;BME280;43284;47.042;15.498;2024-02-21T02:58:25;97904.75;;;2.26;100.00
57442;BME280;43284;47.042;15.498;2024-02-21T03:00:50;97903.91;;;2.22;100.00
57442;BME280;43284;47.042;15.498;2024-02-21T03:03:17;97898.72;;;2.22;100.00
57442;BME280;43284;47.042;15.498;2024-02-21T03:05:43;97911.63;;;2.24;100.00
57442;BME280;43284;47.042;15.498;2024-02-21T03:08:09;97902.16;;;2.31;100.00
57442;BME280;43284;47.042;15.498;2024-02-21T03:10:35;97897.88;;;2.28;100.00
57442;BME280;43284;47.042;15.498;2024-02-21T03:13:00;97905.59;;;2.25;100.00
57442;BME280;43284;47.042;15.498;2024-02-21T03:15:26;97900.44;;;2.25;100.00
57442;BME280;43284;47.042;15.498;2024-02-21T03:17:51;97884.97;;;2.26;100.00
57442;BME280;43284;47.042;15.498;2024-02-21T03:20:17;97893.59;;;2.25;100.00
57442;BME280;43284;47.042;15.498;2024-02-21T03:22:45;97900.47;;;2.23;100.00
57442;BME280;43284;47.042;15.498;2024-02-21T03:25:10;97878.97;;;2.26;100.00
57442;BME280;43284;47.042;15.498;2024-02-21T03:27:38;97895.28;;;2.34;100.00
57442;BME280;43284;47.042;15.498;2024-02-21T03:30:04;97891.84;;;2.23;100.00
57442;BME280;43284;47.042;15.498;2024-02-21T03:32:29;97900.47;;;2.17;100.00
57442;BME280;43284;47.042;15.498;2024-02-21T03:34:55;97905.66;;;2.13;100.00
57442;BME280;43284;47.042;15.498;2024-02-21T03:37:21;97901.34;;;2.12;100.00
57442;BME280;43284;47.042;15.498;2024-02-21T03:39:52;97909.94;;;2.08;100.00
57442;BME280;43284;47.042;15.498;2024-02-21T03:42:18;97914.25;;;2.09;100.00
57442;BME280;43284;47.042;15.498;2024-02-21T03:44:43;97914.22;;;2.18;100.00
57442;BME280;43284;47.042;15.498;2024-02-21T03:47:09;97909.94;;;2.17;100.00
57442;BME280;43284;47.042;15.498;2024-02-21T03:49:37;97902.22;;;2.11;100.00
57442;BME280;43284;47.042;15.498;2024-02-21T03:52:03;97902.22;;;2.08;100.00
57442;BME280;43284;47.042;15.498;2024-02-21T03:54:30;97897.91;;;2.10;100.00
57442;BME280;43284;47.042;15.498;2024-02-21T03:56:56;97896.19;;;2.12;100.00
57442;BME280;43284;47.042;15.498;2024-02-21T03:59:22;97893.59;;;2.12;100.00
57442;BME280;43284;47.042;15.498;2024-02-21T04:01:54;97885.03;;;2.06;100.00
57442;BME280;43284;47.042;15.498;2024-02-21T04:04:22;97885.09;;;1.91;100.00
57442;BME280;43284;47.042;15.498;2024-02-21T04:06:49;97884.22;;;1.89;100.00
57442;BME280;43284;47.042;15.498;2024-02-21T04:09:20;97881.66;;;1.84;100.00
57442;BME280;43284;47.042;15.498;2024-02-21T04:11:46;97882.53;;;1.79;100.00
57442;BME280;43284;47.042;15.498;2024-02-21T04:14:14;97878.22;;;1.81;100.00
57442;BME280;43284;47.042;15.498;2024-02-21T04:16:39;97873.94;;;1.77;100.00
57442;BME280;43284;47.042;15.498;2024-02-21T04:19:05;97877.38;;;1.80;100.00
57442;BME280;43284;47.042;15.498;2024-02-21T04:21:30;97880.81;;;1.84;100.00
57442;BME280;43284;47.042;15.498;2024-02-21T04:23:56;97879.94;;;1.73;100.00
57442;BME280;43284;47.042;15.498;2024-02-21T04:26:21;97876.53;;;1.69;100.00
57442;BME280;43284;47.042;15.498;2024-02-21T04:28:47;97879.97;;;1.68;100.00
57442;BME280;43284;47.042;15.498;2024-02-21T04:31:12;97873.94;;;1.66;100.00
57442;BME280;43284;47.042;15.498;2024-02-21T04:33:38;97874.84;;;1.67;100.00
57442;BME280;43284;47.042;15.498;2024-02-21T04:36:04;97873.09;;;1.70;100.00
57442;BME280;43284;47.042;15.498;2024-02-21T04:38:30;97880.81;;;1.70;100.00
57442;BME280;43284;47.042;15.498;2024-02-21T04:40:56;97879.97;;;1.70;100.00
57442;BME280;43284;47.042;15.498;2024-02-21T04:43:24;97872.25;;;1.71;100.00
57442;BME280;43284;47.042;15.498;2024-02-21T04:45:50;97878.25;;;1.65;100.00
57442;BME280;43284;47.042;15.498;2024-02-21T04:48:16;97868.81;;;1.63;100.00
57442;BME280;43284;47.042;15.498;2024-02-21T04:50:42;97878.25;;;1.61;100.00
57442;BME280;43284;47.042;15.498;2024-02-21T04:53:07;97867.09;;;1.57;100.00
57442;BME280;43284;47.042;15.498;2024-02-21T04:55:33;97867.09;;;1.57;100.00
57442;BME280;43284;47.042;15.498;2024-02-21T04:57:58;97869.69;;;1.60;100.00
57442;BME280;43284;47.042;15.498;2024-02-21T05:00:27;97869.66;;;1.63;100.00
57442;BME280;43284;47.042;15.498;2024-02-21T05:02:55;97866.25;;;1.64;100.00
57442;BME280;43284;47.042;15.498;2024-02-21T05:05:20;97862.81;;;1.64;100.00
57442;BME280;43284;47.042;15.498;2024-02-21T05:07:46;97868.81;;;1.64;100.00
57442;BME280;43284;47.042;15.498;2024-02-21T05:10:12;97860.22;;;1.65;100.00
57442;BME280;43284;47.042;15.498;2024-02-21T05:12:37;97862.81;;;1.62;100.00
57442;BME280;43284;47.042;15.498;2024-02-21T05:15:03;97859.38;;;1.53;100.00
57442;BME280;43284;47.042;15.498;2024-02-21T05:17:29;97859.38;;;1.50;100.00
57442;BME280;43284;47.042;15.498;2024-02-21T05:19:54;97861.09;;;1.46;100.00
57442;BME280;43284;47.042;15.498;2024-02-21T05:22:20;97859.41;;;1.47;100.00
57442;BME280;43284;47.042;15.498;2024-02-21T05:24:45;97859.38;;;1.42;100.00
57442;BME280;43284;47.042;15.498;2024-02-21T05:27:11;97866.25;;;1.40;100.00
57442;BME280;43284;47.042;15.498;2024-02-21T05:29:37;97862.00;;;1.36;100.00
57442;BME280;43284;47.042;15.498;2024-02-21T05:32:02;97860.28;;;1.32;100.00
57442;BME280;43284;47.042;15.498;2024-02-21T05:34:28;97854.25;;;1.33;100.00
57442;BME280;43284;47.042;15.498;2024-02-21T05:36:54;97858.53;;;1.31;100.00
57442;BME280;43284;47.042;15.498;2024-02-21T05:39:20;97849.13;;;1.23;100.00
57442;BME280;43284;47.042;15.498;2024-02-21T05:41:48;97852.53;;;1.18;100.00
57442;BME280;43284;47.042;15.498;2024-02-21T05:44:15;97851.69;;;1.17;100.00
57442;BME280;43284;47.042;15.498;2024-02-21T05:46:40;97862.84;;;1.15;100.00
57442;BME280;43284;47.042;15.498;2024-02-21T05:49:06;97857.69;;;1.10;100.00
57442;BME280;43284;47.042;15.498;2024-02-21T05:51:34;97854.25;;;1.08;100.00
57442;BME280;43284;47.042;15.498;2024-02-21T05:54:00;97850.84;;;1.03;100.00
57442;BME280;43284;47.042;15.498;2024-02-21T05:56:26;97855.97;;;1.00;100.00
57442;BME280;43284;47.042;15.498;2024-02-21T05:58:52;97857.69;;;0.98;100.00
57442;BME280;43284;47.042;15.498;2024-02-21T06:01:18;97861.97;;;0.91;100.00
57442;BME280;43284;47.042;15.498;2024-02-21T06:03:45;97859.41;;;0.88;100.00
57442;BME280;43284;47.042;15.498;2024-02-21T06:06:11;97852.53;;;0.79;100.00
57442;BME280;43284;47.042;15.498;2024-02-21T06:08:36;97856.78;;;0.74;100.00
57442;BME280;43284;47.042;15.498;2024-02-21T06:11:02;97849.09;;;0.73;100.00
57442;BME280;43284;47.042;15.498;2024-02-21T06:13:27;97847.34;;;0.72;100.00
57442;BME280;43284;47.042;15.498;2024-02-21T06:15:53;97841.38;;;0.68;100.00
57442;BME280;43284;47.042;15.498;2024-02-21T06:18:19;97842.22;;;0.66;100.00
57442;BME280;43284;47.042;15.498;2024-02-21T06:20:45;97842.22;;;0.69;100.00
57442;BME280;43284;47.042;15.498;2024-02-21T06:23:16;97843.06;;;0.65;100.00
57442;BME280;43284;47.042;15.498;2024-02-21T06:25:42;97846.50;;;0.67;100.00
57442;BME280;43284;47.042;15.498;2024-02-21T06:28:08;97844.75;;;0.61;100.00
57442;BME280;43284;47.042;15.498;2024-02-21T06:30:36;97845.63;;;0.60;100.00
57442;BME280;43284;47.042;15.498;2024-02-21T06:33:02;97856.78;;;0.65;100.00
57442;BME280;43284;47.042;15.498;2024-02-21T06:35:28;97855.09;;;0.66;100.00
57442;BME280;43284;47.042;15.498;2024-02-21T06:37:53;97852.50;;;0.69;100.00
57442;BME280;43284;47.042;15.498;2024-02-21T06:40:21;97854.22;;;0.67;100.00
57442;BME280;43284;47.042;15.498;2024-02-21T06:42:47;97855.97;;;0.72;100.00
57442;BME280;43284;47.042;15.498;2024-02-21T06:45:16;97855.94;;;0.78;100.00
57442;BME280;43284;47.042;15.498;2024-02-21T06:47:45;97859.38;;;0.85;100.00
57442;BME280;43284;47.042;15.498;2024-02-21T06:50:10;97858.53;;;0.94;100.00
57442;BME280;43284;47.042;15.498;2024-02-21T06:52:36;97865.41;;;1.01;100.00
57442;BME280;43284;47.042;15.498;2024-02-21T06:55:02;97867.97;;;1.13;100.00
57442;BME280;43284;47.042;15.498;2024-02-21T06:57:28;97873.16;;;1.21;100.00
57442;BME280;43284;47.042;15.498;2024-02-21T06:59:54;97868.84;;;1.26;100.00
57442;BME280;43284;47.042;15.498;2024-02-21T07:02:20;97865.41;;;1.33;100.00
57442;BME280;43284;47.042;15.498;2024-02-21T07:04:45;97873.16;;;1.38;100.00
57442;BME280;43284;47.042;15.498;2024-02-21T07:07:11;97863.69;;;1.46;100.00
57442;BME280;43284;47.042;15.498;2024-02-21T07:09:36;97872.25;;;1.53;100.00
57442;BME280;43284;47.042;15.498;2024-02-21T07:12:05;97870.53;;;1.61;100.00
57442;BME280;43284;47.042;15.498;2024-02-21T07:14:35;97869.66;;;1.70;100.00
57442;BME280;43284;47.042;15.498;2024-02-21T07:17:01;97865.38;;;1.79;100.00
57442;BME280;43284;47.042;15.498;2024-02-21T07:19:27;97863.59;;;1.88;100.00
57442;BME280;43284;47.042;15.498;2024-02-21T07:21:52;97871.31;;;1.94;100.00
57442;BME280;43284;47.042;15.498;2024-02-21T07:24:18;97868.75;;;2.01;100.00
57442;BME280;43284;47.042;15.498;2024-02-21T07:26:44;97865.25;;;2.13;100.00
57442;BME280;43284;47.042;15.498;2024-02-21T07:29:10;97862.63;;;2.22;100.00
57442;BME280;43284;47.042;15.498;2024-02-21T07:31:44;97866.91;;;2.30;100.00
57442;BME280;43284;47.042;15.498;2024-02-21T07:34:10;97859.94;;;2.44;100.00
57442;BME280;43284;47.042;15.498;2024-02-21T07:36:36;97853.03;;;2.51;100.00
57442;BME280;43284;47.042;15.498;2024-02-21T07:39:06;97844.41;;;2.55;100.00
57442;BME280;43284;47.042;15.498;2024-02-21T07:41:37;97846.94;;;2.65;100.00
57442;BME280;43284;47.042;15.498;2024-02-21T07:44:04;97847.78;;;2.69;100.00
57442;BME280;43284;47.042;15.498;2024-02-21T07:46:30;97845.16;;;2.74;100.00
57442;BME280;43284;47.042;15.498;2024-02-21T07:48:55;97841.66;;;2.82;100.00
57442;BME280;43284;47.042;15.498;2024-02-21T07:51:21;97827.88;;;2.86;100.00
57442;BME280;43284;47.042;15.498;2024-02-21T07:53:46;97824.38;;;2.91;100.00
57442;BME280;43284;47.042;15.498;2024-02-21T07:56:15;97833.81;;;2.98;100.00
57442;BME280;43284;47.042;15.498;2024-02-21T07:58:41;97827.75;;;3.02;100.00
57442;BME280;43284;47.042;15.498;2024-02-21T08:01:07;97829.34;;;3.20;100.00
57442;BME280;43284;47.042;15.498;2024-02-21T08:03:32;97827.56;;;3.23;100.00
57442;BME280;43284;47.042;15.498;2024-02-21T08:05:58;97824.06;;;3.30;100.00
57442;BME280;43284;47.042;15.498;2024-02-21T08:08:23;97818.81;;;3.38;100.00
57442;BME280;43284;47.042;15.498;2024-02-21T08:10:53;97813.53;;;3.49;100.00
57442;BME280;43284;47.042;15.498;2024-02-21T08:13:18;97816.88;;;3.62;99.49
57442;BME280;43284;47.042;15.498;2024-02-21T08:15:44;97815.88;;;3.74;95.40
57442;BME280;43284;47.042;15.498;2024-02-21T08:18:09;97808.81;;;3.89;90.20
57442;BME280;43284;47.042;15.498;2024-02-21T08:20:35;97800.00;;;4.04;86.50
57442;BME280;43284;47.042;15.498;2024-02-21T08:23:01;97796.44;;;4.13;83.93
57442;BME280;43284;47.042;15.498;2024-02-21T08:25:26;97800.63;;;4.26;84.13
57442;BME280;43284;47.042;15.498;2024-02-21T08:27:57;97798.78;;;4.33;84.46
57442;BME280;43284;47.042;15.498;2024-02-21T08:30:23;97801.19;;;4.47;81.56
57442;BME280;43284;47.042;15.498;2024-02-21T08:32:51;97800.13;;;4.62;77.25
57442;BME280;43284;47.042;15.498;2024-02-21T08:35:19;97801.72;;;4.70;75.05
57442;BME280;43284;47.042;15.498;2024-02-21T08:37:47;97803.88;;;4.98;69.16
57442;BME280;43284;47.042;15.498;2024-02-21T08:40:13;97796.97;;;4.99;68.52
57442;BME280;43284;47.042;15.498;2024-02-21T08:42:43;97792.56;;;5.02;67.35
57442;BME280;43284;47.042;15.498;2024-02-21T08:45:09;97794.22;;;5.08;67.22
57442;BME280;43284;47.042;15.498;2024-02-21T08:47:34;97800.25;;;5.08;67.57
57442;BME280;43284;47.042;15.498;2024-02-21T08:50:03;97788.97;;;5.12;69.13
57442;BME280;43284;47.042;15.498;2024-02-21T08:52:29;97782.88;;;5.13;70.36
57442;BME280;43284;47.042;15.498;2024-02-21T08:54:54;97782.81;;;5.18;66.57
57442;BME280;43284;47.042;15.498;2024-02-21T08:57:23;97787.97;;;5.20;65.72
57442;BME280;43284;47.042;15.498;2024-02-21T08:59:48;97794.91;;;5.19;67.30
57442;BME280;43284;47.042;15.498;2024-02-21T09:02:14;97787.94;;;5.21;67.89
57442;BME280;43284;47.042;15.498;2024-02-21T09:04:42;97793.88;;;5.28;68.97
57442;BME280;43284;47.042;15.498;2024-02-21T09:07:09;97783.34;;;5.37;69.15
57442;BME280;43284;47.042;15.498;2024-02-21T09:09:35;97785.91;;;5.39;69.23
57442;BME280;43284;47.042;15.498;2024-02-21T09:12:03;97778.00;;;5.46;69.15
57442;BME280;43284;47.042;15.498;2024-02-21T09:14:37;97779.63;;;5.52;68.83
57442;BME280;43284;47.042;15.498;2024-02-21T09:17:05;97776.84;;;5.63;66.59
57442;BME280;43284;47.042;15.498;2024-02-21T09:19:31;97776.75;;;5.66;66.82
57442;BME280;43284;47.042;15.498;2024-02-21T09:21:56;97774.09;;;5.70;65.81
57442;BME280;43284;47.042;15.498;2024-02-21T09:24:22;97761.84;;;5.77;63.58
57442;BME280;43284;47.042;15.498;2024-02-21T09:26:47;97760.06;;;5.79;65.04
57442;BME280;43284;47.042;15.498;2024-02-21T09:29:14;97768.53;;;5.90;64.57
57442;BME280;43284;47.042;15.498;2024-02-21T09:31:41;97770.91;;;6.01;64.90
57442;BME280;43284;47.042;15.498;2024-02-21T09:34:07;97758.59;;;6.12;64.38
57442;BME280;43284;47.042;15.498;2024-02-21T09:36:32;97755.84;;;6.18;63.54
57442;BME280;43284;47.042;15.498;2024-02-21T09:38:58;97758.09;;;6.34;66.05
57442;BME280;43284;47.042;15.498;2024-02-21T09:41:27;97751.94;;;6.39;63.42
57442;BME280;43284;47.042;15.498;2024-02-21T09:43:53;97750.84;;;6.50;61.44
57442;BME280;43284;47.042;15.498;2024-02-21T09:46:22;97749.09;;;6.50;60.15
57442;BME280;43284;47.042;15.498;2024-02-21T09:51:34;97741.81;;;6.65;60.83
57442;BME280;43284;47.042;15.498;2024-02-21T09:54:03;97744.34;;;6.69;60.06
57442;BME280;43284;47.042;15.498;2024-02-21T09:56:31;97730.31;;;6.75;59.64
57442;BME280;43284;47.042;15.498;2024-02-21T09:58:58;97731.81;;;6.85;60.83
57442;BME280;43284;47.042;15.498;2024-02-21T10:01:23;97730.78;;;6.91;57.81
57442;BME280;43284;47.042;15.498;2024-02-21T10:03:49;97724.47;;;7.01;58.68
57442;BME280;43284;47.042;15.498;2024-02-21T10:06:15;97729.66;;;7.03;57.85
57442;BME280;43284;47.042;15.498;2024-02-21T10:08:40;97727.66;;;7.12;59.08
57442;BME280;43284;47.042;15.498;2024-02-21T10:11:08;97723.34;;;7.13;57.36
57442;BME280;43284;47.042;15.498;2024-02-21T10:13:35;97720.41;;;7.25;58.18
57442;BME280;43284;47.042;15.498;2024-02-21T10:16:09;97720.91;;;7.39;59.90
57442;BME280;43284;47.042;15.498;2024-02-21T10:18:35;97722.41;;;7.48;60.09
57442;BME280;43284;47.042;15.498;2024-02-21T10:23:27;97712.38;;;7.66;58.04
57442;BME280;43284;47.042;15.498;2024-02-21T10:25:52;97708.06;;;7.64;56.19
57442;BME280;43284;47.042;15.498;2024-02-21T10:28:18;97706.19;;;7.70;56.41
57442;BME280;43284;47.042;15.498;2024-02-21T10:30:51;97706.75;;;7.81;58.16
57442;BME280;43284;47.042;15.498;2024-02-21T10:33:17;97688.34;;;7.87;56.83
57442;BME280;43284;47.042;15.498;2024-02-21T10:35:46;97688.88;;;7.98;56.52
57442;BME280;43284;47.042;15.498;2024-02-21T10:38:12;97686.13;;;8.03;55.01
57442;BME280;43284;47.042;15.498;2024-02-21T10:40:38;97687.78;;;8.05;55.76
57442;BME280;43284;47.042;15.498;2024-02-21T10:43:05;97681.56;;;8.11;55.79
57442;BME280;43284;47.042;15.498;2024-02-21T10:45:35;97678.00;;;8.14;55.77
57442;BME280;43284;47.042;15.498;2024-02-21T10:48:15;97661.88;;;8.02;55.48
57442;BME280;43284;47.042;15.498;2024-02-21T10:56:33;97647.41;;;8.20;54.98
57442;BME280;43284;47.042;15.498;2024-02-21T10:59:05;97641.09;;;8.28;54.69
57442;BME280;43284;47.042;15.498;2024-02-21T11:01:31;97638.63;;;8.24;54.08
57442;BME280;43284;47.042;15.498;2024-02-21T11:04:10;97634.19;;;8.55;56.58
57442;BME280;43284;47.042;15.498;2024-02-21T11:06:38;97635.34;;;8.73;57.18
57442;BME280;43284;47.042;15.498;2024-02-21T11:09:09;97621.00;;;8.86;53.26
57442;BME280;43284;47.042;15.498;2024-02-21T11:11:39;97618.44;;;9.10;54.86
57442;BME280;43284;47.042;15.498;2024-02-21T11:14:18;97601.50;;;9.21;52.96
57442;BME280;43284;47.042;15.498;2024-02-21T11:16:43;97597.97;;;9.22;51.66
57442;BME280;43284;47.042;15.498;2024-02-21T11:19:18;97594.16;;;9.31;51.49
57442;BME280;43284;47.042;15.498;2024-02-21T11:21:44;97588.28;;;9.26;51.48
57442;BME280;43284;47.042;15.498;2024-02-21T11:24:29;97587.13;;;9.33;51.41
57442;BME280;43284;47.042;15.498;2024-02-21T11:29:33;97580.28;;;9.54;51.55
57442;BME280;43284;47.042;15.498;2024-02-21T11:32:09;97579.13;;;9.61;51.11
57442;BME280;43284;47.042;15.498;2024-02-21T11:34:56;97566.69;;;9.68;51.39
57442;BME280;43284;47.042;15.498;2024-02-21T11:37:25;97562.41;;;10.11;49.09
57442;BME280;43284;47.042;15.498;2024-02-21T11:39:52;97560.59;;;10.35;48.27
57442;BME280;43284;47.042;15.498;2024-02-21T11:42:20;97547.13;;;10.44;49.02
57442;BME280;43284;47.042;15.498;2024-02-21T11:44:46;97533.66;;;10.95;46.97
57442;BME280;43284;47.042;15.498;2024-02-21T11:47:11;97531.28;;;11.28;44.00
57442;BME280;43284;47.042;15.498;2024-02-21T11:49:45;97525.16;;;11.48;45.03
57442;BME280;43284;47.042;15.498;2024-02-21T11:52:15;97512.91;;;11.48;44.75
57442;BME280;43284;47.042;15.498;2024-02-21T11:54:47;97518.44;;;11.42;45.11
57442;BME280;43284;47.042;15.498;2024-02-21T11:57:12;97504.34;;;11.26;41.88
57442;BME280;43284;47.042;15.498;2024-02-21T11:59:39;97482.34;;;11.30;42.57
57442;BME280;43284;47.042;15.498;2024-02-21T12:02:05;97483.97;;;11.32;43.39
57442;BME280;43284;47.042;15.498;2024-02-21T12:04:31;97469.47;;;11.25;43.38
57442;BME280;43284;47.042;15.498;2024-02-21T12:06:58;97473.31;;;11.37;43.68
57442;BME280;43284;47.042;15.498;2024-02-21T12:09:27;97474.78;;;11.43;43.38
57442;BME280;43284;47.042;15.498;2024-02-21T12:12:21;97469.09;;;11.52;42.78
57442;BME280;43284;47.042;15.498;2024-02-21T12:14:57;97470.81;;;11.53;42.44
57442;BME280;43284;47.042;15.498;2024-02-21T12:17:25;97474.00;;;11.41;42.21
57442;BME280;43284;47.042;15.498;2024-02-21T12:19:51;97472.22;;;11.41;43.34
57442;BME280;43284;47.042;15.498;2024-02-21T12:22:18;97472.38;;;11.38;42.45
57442;BME280;43284;47.042;15.498;2024-02-21T12:24:43;97464.19;;;11.46;43.88
57442;BME280;43284;47.042;15.498;2024-02-21T12:27:13;97454.16;;;11.54;43.11
57442;BME280;43284;47.042;15.498;2024-02-21T12:29:39;97459.06;;;11.62;43.59
57442;BME280;43284;47.042;15.498;2024-02-21T12:32:05;97450.03;;;11.67;42.67
57442;BME280;43284;47.042;15.498;2024-02-21T12:34:30;97440.88;;;11.76;41.74
57442;BME280;43284;47.042;15.498;2024-02-21T12:36:58;97433.50;;;11.84;43.59
57442;BME280;43284;47.042;15.498;2024-02-21T12:39:24;97429.09;;;11.85;43.74
57442;BME280;43284;47.042;15.498;2024-02-21T12:41:49;97424.63;;;11.87;42.13
57442;BME280;43284;47.042;15.498;2024-02-21T12:44:15;97427.06;;;11.91;42.07
57442;BME280;43284;47.042;15.498;2024-02-21T12:46:42;97416.91;;;12.03;42.22
57442;BME280;43284;47.042;15.498;2024-02-21T12:49:11;97421.81;;;11.91;40.60
57442;BME280;43284;47.042;15.498;2024-02-21T12:51:36;97414.75;;;11.93;41.18
57442;BME280;43284;47.042;15.498;2024-02-21T12:54:03;97413.06;;;11.92;41.17
57442;BME280;43284;47.042;15.498;2024-02-21T12:56:28;97422.53;;;11.95;41.65
57442;BME280;43284;47.042;15.498;2024-02-21T12:59:03;97426.16;;;11.92;42.26
57442;BME280;43284;47.042;15.498;2024-02-21T13:01:28;97418.72;;;11.83;41.83
57442;BME280;43284;47.042;15.498;2024-02-21T13:03:54;97411.72;;;11.84;41.74